Time,TemperatureF,DewpointF,PressureIn,WindDirection,WindDirectionDegrees,WindSpeedMPH,WindSpeedGustMPH,Humidity,HourlyPrecipIn,Conditions,Clouds,dailyrainin,SolarRadiationWatts/m^2,SoftwareType,DateUTC
2013-04-09 00:00:00,51.0,47.3,29.85,East,95,2.0,2.0,87,0.00,,,0.00,0,WeatherCatV1.14B232,2013-04-09 04:00:00,
2013-04-09 00:01:00,51.0,47.3,29.85,ESE,119,1.0,6.0,87,0.00,,,0.00,0,WeatherCatV1.14B232,2013-04-09 04:01:00,
2013-04-09 00:06:00,50.8,47.4,29.85,ESE,113,4.0,4.0,88,0.00,,,0.00,0,WeatherCatV1.14B232,2013-04-09 04:06:00,
2013-04-09 00:09:00,50.8,47.4,29.85,ESE,113,4.0,4.0,88,0.00,,,0.00,0,WeatherCatV1.14B232,2013-04-09 04:09:00,
2013-04-09 00:14:00,50.5,47.4,29.86,SE,133,4.0,6.0,89,0.00,,,0.00,0,WeatherCatV1.14B232,2013-04-09 04:14:00,
2013-04-09 00:19:00,50.4,47.3,29.85,WNW,284,0.0,2.0,89,0.00,,,0.00,0,WeatherCatV1.14B232,2013-04-09 04:19:00,
2013-04-09 00:24:00,50.3,47.2,29.85,East,92,0.0,4.0,89,0.00,,,0.00,0,WeatherCatV1.14B232,2013-04-09 04:24:00,
2013-04-09 00:29:00,50.3,47.5,29.85,NNE,17,0.0,1.0,90,0.00,,,0.00,0,WeatherCatV1.14B232,2013-04-09 04:29:00,
2013-04-09 00:34:00,50.2,47.4,29.85,NNE,24,0.0,1.0,90,0.00,,,0.00,0,WeatherCatV1.14B232,2013-04-09 04:34:00,
2013-04-09 00:39:00,50.3,47.5,29.85,ENE,71,0.0,0.0,90,0.00,,,0.00,0,WeatherCatV1.14B232,2013-04-09 04:39:00,
2013-04-09 00:44:00,50.2,47.4,29.84,WNW,282,0.0,2.0,90,0.00,,,0.00,0,WeatherCatV1.14B232,2013-04-09 04:44:00,
2013-04-09 00:49:00,50.1,47.3,29.84,NNW,343,0.0,1.0,90,0.00,,,0.00,0,WeatherCatV1.14B232,2013-04-09 04:49:00,
2013-04-09 00:54:00,50.1,47.3,29.84,NNW,344,0.0,0.0,90,0.00,,,0.00,0,WeatherCatV1.14B232,2013-04-09 04:54:00,
2013-04-09 00:59:00,50.0,47.2,29.84,SSE,148,2.0,6.0,90,0.00,,,0.00,0,WeatherCatV1.14B232,2013-04-09 04:59:00,
2013-04-09 01:04:00,49.9,47.4,29.84,WNW,296,0.0,1.0,91,0.00,,,0.00,0,WeatherCatV1.14B232,2013-04-09 05:04:00,
2013-04-09 01:09:00,49.9,47.4,29.84,WSW,257,0.0,2.0,91,0.00,,,0.00,0,WeatherCatV1.14B232,2013-04-09 05:09:00,
2013-04-09 01:14:00,49.9,47.4,29.83,NW,319,0.0,1.0,91,0.00,,,0.00,0,WeatherCatV1.14B232,2013-04-09 05:14:00,
2013-04-09 01:19:00,49.9,47.4,29.83,SSW,205,0.0,1.0,91,0.00,,,0.00,0,WeatherCatV1.14B232,2013-04-09 05:19:00,
2013-04-09 01:24:00,50.0,47.5,29.83,WNW,286,2.0,2.0,91,0.00,,,0.00,0,WeatherCatV1.14B232,2013-04-09 05:24:00,
2013-04-09 01:29:00,49.9,47.4,29.82,WNW,294,0.0,0.0,91,0.00,,,0.00,0,WeatherCatV1.14B232,2013-04-09 05:29:00,
2013-04-09 01:34:00,50.0,47.5,29.82,WNW,289,1.0,3.0,91,0.00,,,0.00,0,WeatherCatV1.14B232,2013-04-09 05:34:00,
2013-04-09 01:39:00,50.0,47.5,29.82,WNW,289,0.0,0.0,91,0.00,,,0.00,0,WeatherCatV1.14B232,2013-04-09 05:39:00,
2013-04-09 01:44:00,50.0,47.5,29.82,WNW,292,0.0,1.0,91,0.00,,,0.00,0,WeatherCatV1.14B232,2013-04-09 05:44:00,
2013-04-09 01:49:00,50.0,47.5,29.82,WNW,292,0.0,0.0,91,0.00,,,0.00,0,WeatherCatV1.14B232,2013-04-09 05:49:00,
2013-04-09 01:54:00,50.0,47.5,29.81,WNW,292,0.0,1.0,91,0.00,,,0.00,0,WeatherCatV1.14B232,2013-04-09 05:54:00,
2013-04-09 01:59:00,50.0,47.5,29.81,WNW,293,0.0,0.0,91,0.00,,,0.00,0,WeatherCatV1.14B232,2013-04-09 05:59:00,
2013-04-09 02:04:00,50.1,47.9,29.81,WNW,293,0.0,0.0,92,0.00,,,0.00,0,WeatherCatV1.14B232,2013-04-09 06:04:00,
2013-04-09 02:09:00,50.1,47.9,29.81,NW,306,0.0,0.0,92,0.00,,,0.00,0,WeatherCatV1.14B232,2013-04-09 06:09:00,
2013-04-09 02:14:00,50.1,47.6,29.81,NW,306,0.0,2.0,91,0.00,,,0.00,0,WeatherCatV1.14B232,2013-04-09 06:14:00,
2013-04-09 02:19:00,50.1,47.9,29.81,NW,306,0.0,0.0,92,0.00,,,0.00,0,WeatherCatV1.14B232,2013-04-09 06:19:00,
2013-04-09 02:24:00,50.1,47.9,29.80,SSE,167,0.0,0.0,92,0.00,,,0.00,0,WeatherCatV1.14B232,2013-04-09 06:24:00,
2013-04-09 02:29:00,50.1,47.9,29.81,SSE,168,0.0,0.0,92,0.00,,,0.00,0,WeatherCatV1.14B232,2013-04-09 06:29:00,
2013-04-09 02:34:00,50.1,47.9,29.81,SSE,168,0.0,0.0,92,0.00,,,0.00,0,WeatherCatV1.14B232,2013-04-09 06:34:00,
2013-04-09 02:39:00,50.1,47.9,29.80,SSE,168,0.0,0.0,92,0.00,,,0.00,0,WeatherCatV1.14B232,2013-04-09 06:39:00,
2013-04-09 02:44:00,50.1,47.9,29.80,SSE,167,0.0,1.0,92,0.00,,,0.00,0,WeatherCatV1.14B232,2013-04-09 06:44:00,
2013-04-09 02:49:00,50.2,48.0,29.79,South,169,1.0,1.0,92,0.00,,,0.00,0,WeatherCatV1.14B232,2013-04-09 06:49:00,
2013-04-09 02:54:00,50.2,48.0,29.80,WNW,285,2.0,2.0,92,0.00,,,0.00,0,WeatherCatV1.14B232,2013-04-09 06:54:00,
2013-04-09 02:59:00,50.3,48.1,29.80,WNW,296,0.0,0.0,92,0.00,,,0.00,0,WeatherCatV1.14B232,2013-04-09 06:59:00,
2013-04-09 03:04:00,50.2,48.0,29.80,WNW,296,0.0,0.0,92,0.00,,,0.00,0,WeatherCatV1.14B232,2013-04-09 07:04:00,
2013-04-09 03:09:00,50.2,48.0,29.79,WNW,296,0.0,0.0,92,0.00,,,0.00,0,WeatherCatV1.14B232,2013-04-09 07:09:00,
2013-04-09 03:14:00,50.3,48.1,29.80,WNW,296,0.0,0.0,92,0.00,,,0.00,0,WeatherCatV1.14B232,2013-04-09 07:14:00,
2013-04-09 03:19:00,50.4,48.2,29.79,NNW,331,0.0,5.0,92,0.00,,,0.00,0,WeatherCatV1.14B232,2013-04-09 07:19:00,
2013-04-09 03:24:00,50.4,48.5,29.79,NNW,330,0.0,1.0,93,0.49,,,0.02,0,WeatherCatV1.14B232,2013-04-09 07:24:00,
2013-04-09 03:29:00,50.3,48.6,29.79,SE,140,0.0,0.0,94,0.63,,,0.06,0,WeatherCatV1.14B232,2013-04-09 07:29:00,
2013-04-09 03:34:00,50.2,48.8,29.79,SE,140,0.0,0.0,95,0.54,,,0.11,0,WeatherCatV1.14B232,2013-04-09 07:34:00,
2013-04-09 03:39:00,50.1,48.7,29.79,SE,140,0.0,0.0,95,0.59,,,0.16,0,WeatherCatV1.14B232,2013-04-09 07:39:00,
2013-04-09 03:44:00,49.9,48.8,29.79,SE,140,0.0,0.0,96,0.90,,,0.22,0,WeatherCatV1.14B232,2013-04-09 07:44:00,
2013-04-09 03:49:00,49.5,48.1,29.79,SE,140,0.0,0.0,95,0.14,,,0.23,0,WeatherCatV1.14B232,2013-04-09 07:49:00,
2013-04-09 03:54:00,49.3,48.2,29.79,SE,140,0.0,0.0,96,0.07,,,0.23,0,WeatherCatV1.14B232,2013-04-09 07:54:00,
2013-04-09 03:59:00,49.2,48.1,29.78,SE,140,0.0,0.0,96,0.04,,,0.24,0,WeatherCatV1.14B232,2013-04-09 07:59:00,
2013-04-09 04:04:00,49.1,48.0,29.78,SE,140,0.0,0.0,96,0.04,,,0.24,0,WeatherCatV1.14B232,2013-04-09 08:04:00,
2013-04-09 04:09:00,49.1,48.0,29.77,SE,140,0.0,0.0,96,0.04,,,0.24,0,WeatherCatV1.14B232,2013-04-09 08:09:00,
2013-04-09 04:14:00,48.9,47.8,29.78,SE,140,0.0,0.0,96,0.04,,,0.24,0,WeatherCatV1.14B232,2013-04-09 08:14:00,
2013-04-09 04:19:00,48.7,47.6,29.79,SE,140,0.0,0.0,96,0.00,,,0.24,0,WeatherCatV1.14B232,2013-04-09 08:19:00,
2013-04-09 04:24:00,48.5,47.4,29.78,SE,140,0.0,0.0,96,0.00,,,0.24,0,WeatherCatV1.14B232,2013-04-09 08:24:00,
2013-04-09 04:29:00,48.5,47.4,29.78,SE,140,0.0,0.0,96,0.00,,,0.24,0,WeatherCatV1.14B232,2013-04-09 08:29:00,
2013-04-09 04:34:00,48.5,47.4,29.78,SE,140,0.0,0.0,96,0.00,,,0.24,0,WeatherCatV1.14B232,2013-04-09 08:34:00,
2013-04-09 04:39:00,48.4,47.6,29.78,SE,140,0.0,0.0,97,0.00,,,0.24,0,WeatherCatV1.14B232,2013-04-09 08:39:00,
2013-04-09 04:44:00,48.4,47.6,29.78,SE,140,0.0,0.0,97,0.00,,,0.24,0,WeatherCatV1.14B232,2013-04-09 08:44:00,
2013-04-09 04:49:00,48.2,47.4,29.78,SE,140,0.0,0.0,97,0.00,,,0.24,0,WeatherCatV1.14B232,2013-04-09 08:49:00,
2013-04-09 04:54:00,48.1,47.3,29.78,SE,140,0.0,0.0,97,0.00,,,0.24,0,WeatherCatV1.14B232,2013-04-09 08:54:00,
2013-04-09 04:59:00,48.1,47.3,29.78,SE,140,0.0,0.0,97,0.00,,,0.24,0,WeatherCatV1.14B232,2013-04-09 08:59:00,
2013-04-09 05:04:00,48.1,47.3,29.77,SE,140,0.0,0.0,97,0.00,,,0.24,0,WeatherCatV1.14B232,2013-04-09 09:04:00,
2013-04-09 05:09:00,48.1,47.3,29.78,SE,140,0.0,0.0,97,0.00,,,0.24,0,WeatherCatV1.14B232,2013-04-09 09:09:00,
2013-04-09 05:14:00,48.0,47.2,29.77,SE,140,0.0,0.0,97,0.00,,,0.24,0,WeatherCatV1.14B232,2013-04-09 09:14:00,
2013-04-09 05:19:00,47.9,47.1,29.78,SE,140,0.0,0.0,97,0.00,,,0.24,0,WeatherCatV1.14B232,2013-04-09 09:19:00,
2013-04-09 05:24:00,48.1,47.3,29.77,SE,140,0.0,0.0,97,0.00,,,0.24,0,WeatherCatV1.14B232,2013-04-09 09:24:00,
2013-04-09 05:29:00,48.4,47.6,29.77,ESE,114,0.0,0.0,97,0.00,,,0.24,0,WeatherCatV1.14B232,2013-04-09 09:29:00,
2013-04-09 05:34:00,48.5,47.7,29.78,East,84,0.0,0.0,97,0.00,,,0.24,0,WeatherCatV1.14B232,2013-04-09 09:34:00,
2013-04-09 05:39:00,49.0,48.2,29.78,West,264,2.0,2.0,97,0.00,,,0.24,0,WeatherCatV1.14B232,2013-04-09 09:39:00,
2013-04-09 05:44:00,49.0,48.2,29.78,ESE,119,2.0,3.0,97,0.00,,,0.24,0,WeatherCatV1.14B232,2013-04-09 09:44:00,
2013-04-09 05:49:00,48.9,48.1,29.78,ESE,118,0.0,2.0,97,0.00,,,0.24,0,WeatherCatV1.14B232,2013-04-09 09:49:00,
2013-04-09 05:54:00,49.1,48.3,29.78,SSE,157,1.0,2.0,97,0.00,,,0.24,0,WeatherCatV1.14B232,2013-04-09 09:54:00,
2013-04-09 05:59:00,49.2,48.4,29.78,North,5,0.0,4.0,97,0.00,,,0.24,0,WeatherCatV1.14B232,2013-04-09 09:59:00,
2013-04-09 06:04:00,49.4,48.6,29.78,NNW,332,0.0,1.0,97,0.00,,,0.24,0,WeatherCatV1.14B232,2013-04-09 10:04:00,
2013-04-09 06:09:00,49.3,48.5,29.78,ESE,104,2.0,4.0,97,0.00,,,0.24,0,WeatherCatV1.14B232,2013-04-09 10:09:00,
2013-04-09 06:14:00,49.4,48.6,29.78,ENE,78,0.0,1.0,97,0.00,,,0.24,0,WeatherCatV1.14B232,2013-04-09 10:14:00,
2013-04-09 06:19:00,49.6,48.8,29.78,West,262,2.0,4.0,97,0.00,,,0.24,0,WeatherCatV1.14B232,2013-04-09 10:19:00,
2013-04-09 06:24:00,49.8,49.0,29.79,West,265,1.0,3.0,97,0.00,,,0.24,0,WeatherCatV1.14B232,2013-04-09 10:24:00,
2013-04-09 06:29:00,49.9,49.1,29.79,WSW,257,0.0,2.0,97,0.00,,,0.24,0,WeatherCatV1.14B232,2013-04-09 10:29:00,
2013-04-09 06:34:00,49.5,48.7,29.79,WSW,257,0.0,0.0,97,0.00,,,0.24,5,WeatherCatV1.14B232,2013-04-09 10:34:00,
2013-04-09 06:39:00,48.6,47.5,29.79,West,264,1.0,2.0,96,0.00,,,0.24,7,WeatherCatV1.14B232,2013-04-09 10:39:00,
2013-04-09 06:44:00,47.4,46.0,29.80,West,264,0.0,1.0,95,0.00,,,0.24,7,WeatherCatV1.14B232,2013-04-09 10:44:00,
2013-04-09 06:49:00,46.9,45.8,29.79,West,264,0.0,0.0,96,0.00,,,0.24,11,WeatherCatV1.14B232,2013-04-09 10:49:00,
2013-04-09 06:54:00,46.7,45.6,29.80,West,264,0.0,0.0,96,0.00,,,0.24,12,WeatherCatV1.14B232,2013-04-09 10:54:00,
2013-04-09 06:59:00,46.2,45.1,29.80,West,264,0.0,0.0,96,0.00,,,0.24,16,WeatherCatV1.14B232,2013-04-09 10:59:00,
2013-04-09 07:04:00,45.9,44.8,29.80,West,264,0.0,0.0,96,0.00,,,0.24,18,WeatherCatV1.14B232,2013-04-09 11:04:00,
2013-04-09 07:09:00,45.6,44.5,29.80,West,264,0.0,0.0,96,0.00,,,0.24,21,WeatherCatV1.14B232,2013-04-09 11:09:00,
2013-04-09 07:14:00,45.6,44.5,29.80,West,264,0.0,1.0,96,0.00,,,0.24,32,WeatherCatV1.14B232,2013-04-09 11:14:00,
2013-04-09 07:19:00,45.6,44.5,29.80,West,260,0.0,0.0,96,0.00,,,0.24,32,WeatherCatV1.14B232,2013-04-09 11:19:00,
2013-04-09 07:24:00,45.7,44.6,29.80,West,260,0.0,0.0,96,0.00,,,0.24,35,WeatherCatV1.14B232,2013-04-09 11:24:00,
2013-04-09 07:29:00,45.8,45.0,29.80,West,260,0.0,0.0,97,0.00,,,0.24,40,WeatherCatV1.14B232,2013-04-09 11:29:00,
2013-04-09 07:34:00,46.0,45.2,29.80,West,260,0.0,0.0,97,0.00,,,0.24,49,WeatherCatV1.14B232,2013-04-09 11:34:00,
2013-04-09 07:39:00,46.1,45.3,29.80,West,260,0.0,0.0,97,0.00,,,0.24,56,WeatherCatV1.14B232,2013-04-09 11:39:00,
2013-04-09 07:44:00,46.4,45.6,29.80,West,260,0.0,0.0,97,0.00,,,0.24,56,WeatherCatV1.14B232,2013-04-09 11:44:00,
2013-04-09 07:49:00,46.9,46.1,29.80,West,260,0.0,0.0,97,0.00,,,0.24,54,WeatherCatV1.14B232,2013-04-09 11:49:00,
2013-04-09 07:54:00,47.4,46.3,29.80,West,264,1.0,2.0,96,0.00,,,0.24,58,WeatherCatV1.14B232,2013-04-09 11:54:00,
2013-04-09 07:59:00,48.3,47.2,29.80,SW,216,0.0,2.0,96,0.00,,,0.24,67,WeatherCatV1.14B232,2013-04-09 11:59:00,
2013-04-09 08:04:00,50.0,48.6,29.80,WNW,292,0.0,2.0,95,0.00,,,0.24,76,WeatherCatV1.14B232,2013-04-09 12:04:00,
2013-04-09 08:09:00,52.1,50.7,29.80,West,269,2.0,6.0,95,0.00,,,0.24,76,WeatherCatV1.14B232,2013-04-09 12:09:00,
2013-04-09 08:14:00,55.8,53.2,29.80,West,260,4.0,5.0,91,0.00,,,0.24,121,WeatherCatV1.14B232,2013-04-09 12:14:00,
2013-04-09 08:19:00,57.4,53.6,29.80,WSW,241,4.0,5.0,87,0.00,,,0.24,142,WeatherCatV1.14B232,2013-04-09 12:19:00,
2013-04-09 08:24:00,58.3,54.1,29.80,West,262,3.0,4.0,86,0.00,,,0.24,155,WeatherCatV1.14B232,2013-04-09 12:24:00,
2013-04-09 08:29:00,59.4,54.2,29.80,WSW,247,3.0,5.0,83,0.00,,,0.24,192,WeatherCatV1.14B232,2013-04-09 12:29:00,
2013-04-09 08:34:00,59.8,54.3,29.80,WSW,252,3.0,4.0,82,0.00,,,0.24,232,WeatherCatV1.14B232,2013-04-09 12:34:00,
2013-04-09 08:39:00,60.7,54.8,29.79,WSW,238,6.0,6.0,81,0.00,,,0.24,132,WeatherCatV1.14B232,2013-04-09 12:39:00,
2013-04-09 08:44:00,61.6,55.0,29.79,WSW,248,3.0,5.0,79,0.00,,,0.24,269,WeatherCatV1.14B232,2013-04-09 12:44:00,
2013-04-09 08:49:00,62.3,54.6,29.79,WSW,243,4.0,7.0,76,0.00,,,0.24,304,WeatherCatV1.14B232,2013-04-09 12:49:00,
2013-04-09 08:54:00,62.9,54.8,29.79,WSW,246,3.0,8.0,75,0.00,,,0.24,229,WeatherCatV1.14B232,2013-04-09 12:54:00,
2013-04-09 08:59:00,63.4,55.0,29.79,WSW,244,5.0,6.0,74,0.00,,,0.24,292,WeatherCatV1.14B232,2013-04-09 12:59:00,
2013-04-09 09:04:00,63.9,55.1,29.79,WSW,251,4.0,6.0,73,0.00,,,0.24,121,WeatherCatV1.14B232,2013-04-09 13:04:00,
2013-04-09 09:09:00,64.3,55.1,29.79,West,269,4.0,6.0,72,0.00,,,0.24,316,WeatherCatV1.14B232,2013-04-09 13:09:00,
2013-04-09 09:14:00,64.9,55.3,29.79,West,261,2.0,6.0,71,0.00,,,0.24,262,WeatherCatV1.14B232,2013-04-09 13:14:00,
2013-04-09 09:19:00,65.4,54.6,29.79,WSW,250,1.0,6.0,68,0.00,,,0.24,257,WeatherCatV1.14B232,2013-04-09 13:19:00,
2013-04-09 09:24:00,66.1,54.8,29.79,West,272,5.0,8.0,67,0.00,,,0.24,366,WeatherCatV1.14B232,2013-04-09 13:24:00,
2013-04-09 09:29:00,66.6,54.9,29.79,WSW,245,6.0,7.0,66,0.00,,,0.24,325,WeatherCatV1.14B232,2013-04-09 13:29:00,
2013-04-09 09:34:00,67.2,54.6,29.79,West,269,4.0,7.0,64,0.00,,,0.24,359,WeatherCatV1.14B232,2013-04-09 13:34:00,
2013-04-09 09:39:00,67.8,54.7,29.79,ENE,69,3.0,9.0,63,0.00,,,0.24,257,WeatherCatV1.14B232,2013-04-09 13:39:00,
2013-04-09 09:44:00,68.6,54.6,29.79,WSW,249,5.0,7.0,61,0.00,,,0.24,332,WeatherCatV1.14B232,2013-04-09 13:44:00,
2013-04-09 09:49:00,69.5,55.0,29.78,WSW,238,7.0,7.0,60,0.00,,,0.24,445,WeatherCatV1.14B232,2013-04-09 13:49:00,
2013-04-09 09:54:00,70.3,54.3,29.78,West,281,3.0,5.0,57,0.00,,,0.24,494,WeatherCatV1.14B232,2013-04-09 13:54:00,
2013-04-09 09:59:00,71.2,54.7,29.78,West,272,6.0,10.0,56,0.00,,,0.24,508,WeatherCatV1.14B232,2013-04-09 13:59:00,
2013-04-09 10:04:00,71.7,53.6,29.78,West,265,3.0,9.0,53,0.00,,,0.24,489,WeatherCatV1.14B232,2013-04-09 14:04:00,
2013-04-09 10:09:00,71.7,53.1,29.78,West,259,6.0,12.0,52,0.00,,,0.24,504,WeatherCatV1.14B232,2013-04-09 14:09:00,
2013-04-09 10:14:00,72.0,52.3,29.78,WSW,251,7.0,12.0,50,0.00,,,0.24,469,WeatherCatV1.14B232,2013-04-09 14:14:00,
2013-04-09 10:19:00,72.1,53.0,29.78,WSW,254,9.0,10.0,51,0.00,,,0.24,513,WeatherCatV1.14B232,2013-04-09 14:19:00,
2013-04-09 10:24:00,72.5,52.2,29.78,West,279,6.0,11.0,49,0.00,,,0.24,533,WeatherCatV1.14B232,2013-04-09 14:24:00,
2013-04-09 10:29:00,73.0,52.7,29.79,West,269,7.0,10.0,49,0.00,,,0.24,524,WeatherCatV1.14B232,2013-04-09 14:29:00,
2013-04-09 10:34:00,73.5,52.0,29.78,West,263,4.0,13.0,47,0.00,,,0.24,587,WeatherCatV1.14B232,2013-04-09 14:34:00,
2013-04-09 10:39:00,74.0,52.5,29.79,WNW,296,5.0,8.0,47,0.00,,,0.24,526,WeatherCatV1.14B232,2013-04-09 14:39:00,
2013-04-09 10:44:00,74.4,52.3,29.79,WSW,252,7.0,7.0,46,0.00,,,0.24,563,WeatherCatV1.14B232,2013-04-09 14:44:00,
2013-04-09 10:49:00,74.3,51.0,29.79,WSW,258,8.0,8.0,44,0.00,,,0.24,563,WeatherCatV1.14B232,2013-04-09 14:49:00,
2013-04-09 10:54:00,74.9,50.2,29.79,West,266,7.0,7.0,42,0.00,,,0.24,603,WeatherCatV1.14B232,2013-04-09 14:54:00,
2013-04-09 10:59:00,75.3,50.6,29.79,WNW,298,5.0,8.0,42,0.00,,,0.24,652,WeatherCatV1.14B232,2013-04-09 14:59:00,
2013-04-09 11:04:00,75.8,50.4,29.79,WSW,252,6.0,7.0,41,0.00,,,0.24,691,WeatherCatV1.14B232,2013-04-09 15:04:00,
2013-04-09 11:09:00,76.0,49.2,29.80,NW,304,6.0,13.0,39,0.00,,,0.24,744,WeatherCatV1.14B232,2013-04-09 15:09:00,
2013-04-09 11:14:00,76.4,49.6,29.79,WNW,292,3.0,8.0,39,0.00,,,0.24,726,WeatherCatV1.14B232,2013-04-09 15:14:00,
2013-04-09 11:19:00,76.2,49.4,29.78,West,271,6.0,9.0,39,0.00,,,0.24,715,WeatherCatV1.14B232,2013-04-09 15:19:00,
2013-04-09 11:24:00,76.4,48.9,29.78,West,260,7.0,15.0,38,0.00,,,0.24,719,WeatherCatV1.14B232,2013-04-09 15:24:00,
2013-04-09 11:29:00,76.2,48.7,29.78,West,259,7.0,11.0,38,0.00,,,0.24,675,WeatherCatV1.14B232,2013-04-09 15:29:00,
2013-04-09 11:34:00,76.4,48.9,29.78,West,260,7.0,13.0,38,0.00,,,0.24,652,WeatherCatV1.14B232,2013-04-09 15:34:00,
2013-04-09 11:39:00,76.2,48.7,29.79,WNW,293,8.0,10.0,38,0.00,,,0.24,663,WeatherCatV1.14B232,2013-04-09 15:39:00,
2013-04-09 11:44:00,76.5,49.7,29.79,West,279,5.0,10.0,39,0.00,,,0.24,633,WeatherCatV1.14B232,2013-04-09 15:44:00,
2013-04-09 11:49:00,76.4,48.9,29.79,WSW,252,6.0,8.0,38,0.00,,,0.24,670,WeatherCatV1.14B232,2013-04-09 15:49:00,
2013-04-09 11:54:00,77.1,48.8,29.79,WNW,289,9.0,9.0,37,0.00,,,0.24,671,WeatherCatV1.14B232,2013-04-09 15:54:00,
2013-04-09 11:59:00,77.2,48.2,29.78,West,263,5.0,9.0,36,0.00,,,0.24,747,WeatherCatV1.14B232,2013-04-09 15:59:00,
2013-04-09 12:04:00,77.3,48.2,29.78,WNW,293,6.0,12.0,36,0.00,,,0.24,675,WeatherCatV1.14B232,2013-04-09 16:04:00,
2013-04-09 12:09:00,77.1,47.3,29.79,WSW,257,5.0,9.0,35,0.00,,,0.24,802,WeatherCatV1.14B232,2013-04-09 16:09:00,
2013-04-09 12:14:00,77.3,49.0,29.79,WNW,296,8.0,9.0,37,0.00,,,0.24,833,WeatherCatV1.14B232,2013-04-09 16:14:00,
2013-04-09 12:19:00,78.0,47.3,29.79,West,259,6.0,9.0,34,0.00,,,0.24,846,WeatherCatV1.14B232,2013-04-09 16:19:00,
2013-04-09 12:24:00,78.6,47.9,29.79,WNW,302,5.0,9.0,34,0.00,,,0.24,824,WeatherCatV1.14B232,2013-04-09 16:24:00,
2013-04-09 12:29:00,78.5,47.0,29.79,West,259,4.0,11.0,33,0.00,,,0.24,847,WeatherCatV1.14B232,2013-04-09 16:29:00,
2013-04-09 12:34:00,78.7,47.9,29.78,West,267,4.0,9.0,34,0.00,,,0.24,828,WeatherCatV1.14B232,2013-04-09 16:34:00,
2013-04-09 12:39:00,78.4,46.9,29.78,WNW,294,9.0,11.0,33,0.00,,,0.24,747,WeatherCatV1.14B232,2013-04-09 16:39:00,
2013-04-09 12:44:00,78.5,47.0,29.78,WSW,258,7.0,14.0,33,0.00,,,0.24,731,WeatherCatV1.14B232,2013-04-09 16:44:00,
2013-04-09 12:49:00,78.4,46.9,29.78,WSW,246,8.0,9.0,33,0.00,,,0.24,821,WeatherCatV1.14B232,2013-04-09 16:49:00,
2013-04-09 12:54:00,78.6,47.1,29.78,WNW,286,5.0,9.0,33,0.00,,,0.24,819,WeatherCatV1.14B232,2013-04-09 16:54:00,
2013-04-09 12:59:00,79.3,47.7,29.78,NW,314,5.0,8.0,33,0.00,,,0.24,863,WeatherCatV1.14B232,2013-04-09 16:59:00,
2013-04-09 13:04:00,79.9,46.5,29.78,West,269,3.0,9.0,31,0.00,,,0.24,805,WeatherCatV1.14B232,2013-04-09 17:04:00,
2013-04-09 13:09:00,79.9,46.5,29.78,West,268,6.0,10.0,31,0.00,,,0.24,831,WeatherCatV1.14B232,2013-04-09 17:09:00,
2013-04-09 13:14:00,79.4,46.1,29.78,West,268,8.0,13.0,31,0.00,,,0.24,816,WeatherCatV1.14B232,2013-04-09 17:14:00,
2013-04-09 13:19:00,79.4,46.9,29.78,West,272,4.0,8.0,32,0.00,,,0.24,816,WeatherCatV1.14B232,2013-04-09 17:19:00,
2013-04-09 13:24:00,79.9,45.7,29.78,WSW,256,7.0,10.0,30,0.00,,,0.24,833,WeatherCatV1.14B232,2013-04-09 17:24:00,
2013-04-09 13:29:00,80.3,46.0,29.78,WSW,252,9.0,9.0,30,0.00,,,0.24,856,WeatherCatV1.14B232,2013-04-09 17:29:00,
2013-04-09 13:34:00,80.3,47.7,29.78,West,261,6.0,8.0,32,0.00,,,0.24,842,WeatherCatV1.14B232,2013-04-09 17:34:00,
2013-04-09 13:39:00,80.0,44.9,29.78,NW,325,3.0,10.0,29,0.00,,,0.24,853,WeatherCatV1.14B232,2013-04-09 17:39:00,
2013-04-09 13:44:00,81.0,45.7,29.78,NW,319,7.0,11.0,29,0.00,,,0.24,837,WeatherCatV1.14B232,2013-04-09 17:44:00,
2013-04-09 13:49:00,80.9,46.5,29.78,NW,307,7.0,7.0,30,0.00,,,0.24,838,WeatherCatV1.14B232,2013-04-09 17:49:00,
2013-04-09 13:54:00,80.7,45.5,29.78,NW,306,5.0,11.0,29,0.00,,,0.24,840,WeatherCatV1.14B232,2013-04-09 17:54:00,
2013-04-09 13:59:00,80.8,45.5,29.78,WNW,298,3.0,10.0,29,0.00,,,0.24,837,WeatherCatV1.14B232,2013-04-09 17:59:00,
2013-04-09 14:04:00,80.9,44.7,29.78,WSW,254,6.0,13.0,28,0.00,,,0.24,833,WeatherCatV1.14B232,2013-04-09 18:04:00,
2013-04-09 14:09:00,81.2,45.0,29.78,WNW,296,6.0,11.0,28,0.00,,,0.24,835,WeatherCatV1.14B232,2013-04-09 18:09:00,
2013-04-09 14:14:00,81.2,45.0,29.78,WSW,257,5.0,7.0,28,0.00,,,0.24,826,WeatherCatV1.14B232,2013-04-09 18:14:00,
2013-04-09 14:19:00,82.2,44.9,29.78,WSW,246,6.0,9.0,27,0.00,,,0.24,814,WeatherCatV1.14B232,2013-04-09 18:19:00,
2013-04-09 14:24:00,81.9,42.6,29.78,NW,318,3.0,14.0,25,0.00,,,0.24,812,WeatherCatV1.14B232,2013-04-09 18:24:00,
2013-04-09 14:29:00,81.3,42.1,29.78,NW,307,4.0,15.0,25,0.00,,,0.24,805,WeatherCatV1.14B232,2013-04-09 18:29:00,
2013-04-09 14:34:00,81.2,41.0,29.78,West,280,5.0,7.0,24,0.00,,,0.24,798,WeatherCatV1.14B232,2013-04-09 18:34:00,
2013-04-09 14:39:00,81.7,42.4,29.77,NW,316,2.0,7.0,25,0.00,,,0.24,798,WeatherCatV1.14B232,2013-04-09 18:39:00,
2013-04-09 14:44:00,82.2,41.8,29.78,NW,325,3.0,10.0,24,0.00,,,0.24,782,WeatherCatV1.14B232,2013-04-09 18:44:00,
2013-04-09 14:49:00,81.8,41.5,29.77,WNW,301,7.0,14.0,24,0.00,,,0.24,772,WeatherCatV1.14B232,2013-04-09 18:49:00,
2013-04-09 14:54:00,81.4,40.0,29.77,WNW,290,7.0,9.0,23,0.00,,,0.24,761,WeatherCatV1.14B232,2013-04-09 18:54:00,
2013-04-09 14:59:00,81.3,39.9,29.77,WNW,297,4.0,8.0,23,0.00,,,0.24,749,WeatherCatV1.14B232,2013-04-09 18:59:00,
2013-04-09 15:04:00,81.5,42.3,29.77,WNW,292,6.0,7.0,25,0.00,,,0.24,737,WeatherCatV1.14B232,2013-04-09 19:04:00,
2013-04-09 15:09:00,81.4,41.1,29.77,NNW,338,4.0,9.0,24,0.00,,,0.24,729,WeatherCatV1.14B232,2013-04-09 19:09:00,
2013-04-09 15:14:00,81.1,39.8,29.77,WNW,292,2.0,11.0,23,0.00,,,0.24,694,WeatherCatV1.14B232,2013-04-09 19:14:00,
2013-04-09 15:19:00,80.9,40.7,29.77,WNW,298,7.0,11.0,24,0.00,,,0.24,708,WeatherCatV1.14B232,2013-04-09 19:19:00,
2013-04-09 15:24:00,80.9,39.6,29.77,WNW,303,4.0,9.0,23,0.00,,,0.24,698,WeatherCatV1.14B232,2013-04-09 19:24:00,
2013-04-09 15:29:00,81.1,39.8,29.77,WNW,296,8.0,10.0,23,0.00,,,0.24,691,WeatherCatV1.14B232,2013-04-09 19:29:00,
2013-04-09 15:34:00,80.7,39.4,29.77,WNW,283,5.0,11.0,23,0.00,,,0.24,299,WeatherCatV1.14B232,2013-04-09 19:34:00,
2013-04-09 15:39:00,79.9,40.9,29.77,West,267,4.0,6.0,25,0.00,,,0.24,211,WeatherCatV1.14B232,2013-04-09 19:39:00,
2013-04-09 15:44:00,80.0,41.0,29.77,NW,306,5.0,9.0,25,0.00,,,0.24,142,WeatherCatV1.14B232,2013-04-09 19:44:00,
2013-04-09 15:49:00,79.7,42.7,29.77,NW,304,7.0,9.0,27,0.00,,,0.24,102,WeatherCatV1.14B232,2013-04-09 19:49:00,
2013-04-09 15:54:00,79.6,41.7,29.77,WNW,300,3.0,9.0,26,0.00,,,0.24,104,WeatherCatV1.14B232,2013-04-09 19:54:00,
2013-04-09 15:59:00,79.4,41.5,29.77,WNW,286,4.0,5.0,26,0.00,,,0.24,93,WeatherCatV1.14B232,2013-04-09 19:59:00,
2013-04-09 16:04:00,79.1,41.2,29.77,NW,315,2.0,6.0,26,0.00,,,0.24,111,WeatherCatV1.14B232,2013-04-09 20:04:00,
2013-04-09 16:09:00,78.7,39.9,29.77,NW,321,4.0,8.0,25,0.00,,,0.24,353,WeatherCatV1.14B232,2013-04-09 20:09:00,
2013-04-09 16:14:00,79.3,41.4,29.76,WNW,301,1.0,3.0,26,0.00,,,0.24,330,WeatherCatV1.14B232,2013-04-09 20:14:00,
2013-04-09 16:19:00,79.2,42.3,29.76,NW,304,4.0,6.0,27,0.00,,,0.24,253,WeatherCatV1.14B232,2013-04-09 20:19:00,
2013-04-09 16:24:00,79.3,41.4,29.76,NW,321,2.0,2.0,26,0.00,,,0.24,257,WeatherCatV1.14B232,2013-04-09 20:24:00,
2013-04-09 16:29:00,79.4,41.5,29.76,NW,307,2.0,5.0,26,0.00,,,0.24,410,WeatherCatV1.14B232,2013-04-09 20:29:00,
2013-04-09 16:34:00,79.0,41.2,29.76,NW,319,3.0,7.0,26,0.00,,,0.24,105,WeatherCatV1.14B232,2013-04-09 20:34:00,
2013-04-09 16:39:00,78.2,39.5,29.76,WNW,290,5.0,5.0,25,0.00,,,0.24,76,WeatherCatV1.14B232,2013-04-09 20:39:00,
2013-04-09 16:44:00,77.8,41.1,29.76,WNW,292,5.0,5.0,27,0.00,,,0.24,257,WeatherCatV1.14B232,2013-04-09 20:44:00,
2013-04-09 16:49:00,78.1,38.4,29.76,NNW,335,3.0,9.0,24,0.00,,,0.24,234,WeatherCatV1.14B232,2013-04-09 20:49:00,
2013-04-09 16:54:00,77.6,40.0,29.76,West,270,3.0,6.0,26,0.00,,,0.24,120,WeatherCatV1.14B232,2013-04-09 20:54:00,
2013-04-09 16:59:00,77.0,41.4,29.76,WNW,298,2.0,3.0,28,0.00,,,0.24,165,WeatherCatV1.14B232,2013-04-09 20:59:00,
2013-04-09 17:04:00,77.2,39.6,29.76,WNW,300,5.0,6.0,26,0.00,,,0.24,206,WeatherCatV1.14B232,2013-04-09 21:04:00,
2013-04-09 17:09:00,77.6,40.0,29.76,WNW,299,2.0,4.0,26,0.00,,,0.24,100,WeatherCatV1.14B232,2013-04-09 21:09:00,
2013-04-09 17:14:00,77.9,41.2,29.76,ENE,57,3.0,4.0,27,0.00,,,0.24,74,WeatherCatV1.14B232,2013-04-09 21:14:00,
2013-04-09 17:19:00,77.9,39.2,29.77,NW,307,0.0,7.0,25,0.00,,,0.24,74,WeatherCatV1.14B232,2013-04-09 21:19:00,
2013-04-09 17:24:00,77.7,40.1,29.77,WNW,286,4.0,5.0,26,0.00,,,0.24,76,WeatherCatV1.14B232,2013-04-09 21:24:00,
2013-04-09 17:29:00,77.4,40.8,29.78,NW,308,2.0,3.0,27,0.00,,,0.24,60,WeatherCatV1.14B232,2013-04-09 21:29:00,
2013-04-09 17:34:00,77.2,40.6,29.77,WNW,296,2.0,3.0,27,0.00,,,0.24,72,WeatherCatV1.14B232,2013-04-09 21:34:00,
2013-04-09 17:39:00,77.4,41.7,29.78,WNW,296,0.0,3.0,28,0.00,,,0.24,67,WeatherCatV1.14B232,2013-04-09 21:39:00,
2013-04-09 17:44:00,77.5,40.9,29.78,NW,311,1.0,2.0,27,0.00,,,0.24,60,WeatherCatV1.14B232,2013-04-09 21:44:00,
2013-04-09 17:49:00,77.4,41.7,29.78,WNW,298,3.0,5.0,28,0.00,,,0.24,72,WeatherCatV1.14B232,2013-04-09 21:49:00,
2013-04-09 17:54:00,77.6,41.9,29.78,WNW,295,1.0,5.0,28,0.00,,,0.24,100,WeatherCatV1.14B232,2013-04-09 21:54:00,
2013-04-09 17:59:00,77.9,42.1,29.78,WNW,294,0.0,5.0,28,0.00,,,0.24,53,WeatherCatV1.14B232,2013-04-09 21:59:00,
2013-04-09 18:04:00,77.8,42.1,29.78,WNW,299,1.0,1.0,28,0.00,,,0.24,153,WeatherCatV1.14B232,2013-04-09 22:04:00,
2013-04-09 18:09:00,77.6,42.8,29.78,NW,309,3.0,4.0,29,0.00,,,0.24,120,WeatherCatV1.14B232,2013-04-09 22:09:00,
2013-04-09 18:14:00,77.4,43.5,29.78,WNW,298,2.0,4.0,30,0.00,,,0.24,104,WeatherCatV1.14B232,2013-04-09 22:14:00,
2013-04-09 18:19:00,76.8,40.3,29.79,WNW,298,0.0,2.0,27,0.00,,,0.24,77,WeatherCatV1.14B232,2013-04-09 22:19:00,
2013-04-09 18:24:00,76.8,42.1,29.79,NW,309,0.0,5.0,29,0.00,,,0.24,83,WeatherCatV1.14B232,2013-04-09 22:24:00,
2013-04-09 18:29:00,76.3,42.6,29.79,NNE,13,0.0,2.0,30,0.00,,,0.24,72,WeatherCatV1.14B232,2013-04-09 22:29:00,
2013-04-09 18:34:00,75.9,43.9,29.79,NW,305,1.0,2.0,32,0.00,,,0.24,54,WeatherCatV1.14B232,2013-04-09 22:34:00,
2013-04-09 18:39:00,75.4,42.6,29.78,ENE,74,1.0,1.0,31,0.00,,,0.24,39,WeatherCatV1.14B232,2013-04-09 22:39:00,
2013-04-09 18:44:00,75.3,43.4,29.78,NE,39,0.0,2.0,32,0.00,,,0.24,33,WeatherCatV1.14B232,2013-04-09 22:44:00,
2013-04-09 18:49:00,74.8,43.8,29.79,NNE,15,0.0,1.0,33,0.00,,,0.24,32,WeatherCatV1.14B232,2013-04-09 22:49:00,
2013-04-09 18:54:00,74.4,43.4,29.79,NNE,15,0.0,1.0,33,0.00,,,0.24,30,WeatherCatV1.14B232,2013-04-09 22:54:00,
2013-04-09 18:59:00,74.5,43.5,29.79,NE,45,2.0,2.0,33,0.00,,,0.24,21,WeatherCatV1.14B232,2013-04-09 22:59:00,
2013-04-09 19:05:00,74.2,42.4,29.79,NE,53,0.0,2.0,32,0.00,,,0.24,16,WeatherCatV1.14B232,2013-04-09 23:05:00,
2013-04-09 19:10:00,74.1,42.3,29.79,NE,53,0.0,0.0,32,0.00,,,0.24,12,WeatherCatV1.14B232,2013-04-09 23:10:00,
2013-04-09 19:15:00,73.7,42.8,29.79,NE,53,0.0,1.0,33,0.00,,,0.24,9,WeatherCatV1.14B232,2013-04-09 23:15:00,
2013-04-09 19:20:00,73.6,41.1,29.78,NE,53,0.0,1.0,31,0.00,,,0.24,5,WeatherCatV1.14B232,2013-04-09 23:20:00,
2013-04-09 19:25:00,73.4,41.7,29.78,NE,53,0.0,0.0,32,0.00,,,0.24,0,WeatherCatV1.14B232,2013-04-09 23:25:00,
2013-04-09 19:29:00,72.7,41.9,29.78,NE,53,0.0,0.0,33,0.00,,,0.24,0,WeatherCatV1.14B232,2013-04-09 23:29:00,
2013-04-09 19:34:00,71.6,42.5,29.78,NE,53,0.0,0.0,35,0.00,,,0.24,0,WeatherCatV1.14B232,2013-04-09 23:34:00,
2013-04-09 19:39:00,71.0,42.0,29.79,NE,53,0.0,0.0,35,0.00,,,0.24,0,WeatherCatV1.14B232,2013-04-09 23:39:00,
2013-04-09 19:44:00,70.3,42.8,29.79,NE,53,0.0,0.0,37,0.00,,,0.24,0,WeatherCatV1.14B232,2013-04-09 23:44:00,
2013-04-09 19:49:00,69.8,42.3,29.79,NE,53,0.0,0.0,37,0.00,,,0.24,0,WeatherCatV1.14B232,2013-04-09 23:49:00,
2013-04-09 19:54:00,69.4,42.7,29.80,NE,53,0.0,0.0,38,0.00,,,0.24,0,WeatherCatV1.14B232,2013-04-09 23:54:00,
2013-04-09 19:59:00,69.1,42.4,29.80,NE,53,0.0,0.0,38,0.00,,,0.24,0,WeatherCatV1.14B232,2013-04-09 23:59:00,
2013-04-09 20:04:00,68.1,42.9,29.80,NE,53,0.0,0.0,40,0.00,,,0.24,0,WeatherCatV1.14B232,2013-04-10 00:04:00,
2013-04-09 20:09:00,67.4,42.9,29.80,NE,53,0.0,0.0,41,0.00,,,0.24,0,WeatherCatV1.14B232,2013-04-10 00:09:00,
2013-04-09 20:14:00,67.5,42.3,29.80,NE,53,0.0,0.0,40,0.00,,,0.24,0,WeatherCatV1.14B232,2013-04-10 00:14:00,
2013-04-09 20:19:00,67.5,42.3,29.80,NE,53,0.0,0.0,40,0.00,,,0.24,0,WeatherCatV1.14B232,2013-04-10 00:19:00,
2013-04-09 20:24:00,67.5,42.3,29.80,NE,53,0.0,0.0,40,0.00,,,0.24,0,WeatherCatV1.14B232,2013-04-10 00:24:00,
2013-04-09 20:29:00,67.6,41.8,29.80,NE,53,0.0,0.0,39,0.00,,,0.24,0,WeatherCatV1.14B232,2013-04-10 00:29:00,
2013-04-09 20:34:00,67.4,42.2,29.80,NE,53,0.0,0.0,40,0.00,,,0.24,0,WeatherCatV1.14B232,2013-04-10 00:34:00,
2013-04-09 20:39:00,67.1,42.0,29.81,NE,53,0.0,0.0,40,0.00,,,0.24,0,WeatherCatV1.14B232,2013-04-10 00:39:00,
2013-04-09 20:44:00,66.4,41.3,29.81,NE,53,0.0,0.0,40,0.00,,,0.24,0,WeatherCatV1.14B232,2013-04-10 00:44:00,
2013-04-09 20:49:00,66.5,41.4,29.81,NE,53,0.0,0.0,40,0.00,,,0.24,0,WeatherCatV1.14B232,2013-04-10 00:49:00,
2013-04-09 20:55:00,66.6,41.5,29.81,NE,53,0.0,0.0,40,0.00,,,0.24,0,WeatherCatV1.14B232,2013-04-10 00:55:00,
2013-04-09 20:59:00,66.5,42.1,29.81,NE,53,0.0,0.0,41,0.00,,,0.24,0,WeatherCatV1.14B232,2013-04-10 00:59:00,
2013-04-09 21:04:00,66.7,42.9,29.82,NE,53,0.0,0.0,42,0.00,,,0.24,0,WeatherCatV1.14B232,2013-04-10 01:04:00,
2013-04-09 21:09:00,67.0,41.2,29.82,NE,53,0.0,0.0,39,0.00,,,0.24,0,WeatherCatV1.14B232,2013-04-10 01:09:00,
2013-04-09 21:15:00,67.0,41.2,29.82,NE,53,0.0,0.0,39,0.00,,,0.24,0,WeatherCatV1.14B232,2013-04-10 01:15:00,
2013-04-09 21:20:00,67.1,41.3,29.82,East,82,1.0,1.0,39,0.00,,,0.24,0,WeatherCatV1.14B232,2013-04-10 01:20:00,
2013-04-09 21:25:00,67.4,41.6,29.82,ESE,106,0.0,2.0,39,0.00,,,0.24,0,WeatherCatV1.14B232,2013-04-10 01:25:00,
2013-04-09 21:30:00,67.7,41.8,29.82,SE,126,0.0,1.0,39,0.00,,,0.24,0,WeatherCatV1.14B232,2013-04-10 01:30:00,
2013-04-09 21:35:00,67.7,42.5,29.82,SE,126,0.0,0.0,40,0.00,,,0.24,0,WeatherCatV1.14B232,2013-04-10 01:35:00,
2013-04-09 21:40:00,67.4,42.2,29.83,SSE,149,2.0,2.0,40,0.00,,,0.24,0,WeatherCatV1.14B232,2013-04-10 01:40:00,
2013-04-09 21:45:00,67.1,42.6,29.83,SE,132,1.0,5.0,41,0.00,,,0.24,0,WeatherCatV1.14B232,2013-04-10 01:45:00,
2013-04-09 21:50:00,66.6,42.8,29.83,SE,128,0.0,4.0,42,0.00,,,0.24,0,WeatherCatV1.14B232,2013-04-10 01:50:00,
2013-04-09 21:55:00,66.0,42.9,29.83,ESE,116,1.0,1.0,43,0.00,,,0.24,0,WeatherCatV1.14B232,2013-04-10 01:55:00,
2013-04-09 22:00:00,65.9,42.8,29.83,ESE,119,0.0,1.0,43,0.00,,,0.24,0,WeatherCatV1.14B232,2013-04-10 02:00:00,
2013-04-09 22:05:00,65.4,42.9,29.83,ESE,123,1.0,1.0,44,0.00,,,0.24,0,WeatherCatV1.14B232,2013-04-10 02:05:00,
2013-04-09 22:10:00,64.9,43.0,29.82,ESE,123,0.0,1.0,45,0.00,,,0.24,0,WeatherCatV1.14B232,2013-04-10 02:10:00,
2013-04-09 22:15:00,64.2,43.0,29.82,ESE,123,0.0,0.0,46,0.00,,,0.24,0,WeatherCatV1.14B232,2013-04-10 02:15:00,
2013-04-09 22:20:00,63.6,43.0,29.82,ESE,123,0.0,0.0,47,0.00,,,0.24,0,WeatherCatV1.14B232,2013-04-10 02:20:00,
2013-04-09 22:25:00,63.0,43.5,29.82,ESE,123,0.0,0.0,49,0.00,,,0.24,0,WeatherCatV1.14B232,2013-04-10 02:25:00,
2013-04-09 22:30:00,62.5,43.6,29.81,ESE,123,0.0,0.0,50,0.00,,,0.24,0,WeatherCatV1.14B232,2013-04-10 02:30:00,
2013-04-09 22:35:00,62.2,43.3,29.80,ESE,123,1.0,2.0,50,0.00,,,0.24,0,WeatherCatV1.14B232,2013-04-10 02:35:00,
2013-04-09 22:40:00,62.2,43.3,29.78,ESE,123,0.0,2.0,50,0.00,,,0.24,0,WeatherCatV1.14B232,2013-04-10 02:40:00,
2013-04-09 22:45:00,63.0,42.4,29.78,ESE,114,0.0,1.0,47,0.00,,,0.24,0,WeatherCatV1.14B232,2013-04-10 02:45:00,
2013-04-09 22:50:00,63.7,42.0,29.78,SE,140,0.0,2.0,45,0.00,,,0.24,0,WeatherCatV1.14B232,2013-04-10 02:50:00,
2013-04-09 22:55:00,64.1,41.7,29.77,ESE,105,1.0,2.0,44,0.00,,,0.24,0,WeatherCatV1.14B232,2013-04-10 02:55:00,
2013-04-09 23:00:00,64.9,41.3,29.77,SE,135,0.0,2.0,42,0.00,,,0.24,0,WeatherCatV1.14B232,2013-04-10 03:00:00,
2013-04-09 23:05:00,65.6,41.3,29.77,SE,136,4.0,5.0,41,0.00,,,0.24,0,WeatherCatV1.14B232,2013-04-10 03:05:00,
2013-04-09 23:10:00,66.1,42.3,29.77,ESE,109,4.0,4.0,42,0.00,,,0.24,0,WeatherCatV1.14B232,2013-04-10 03:10:00,
2013-04-09 23:15:00,65.7,42.0,29.76,ESE,105,1.0,2.0,42,0.00,,,0.24,0,WeatherCatV1.14B232,2013-04-10 03:15:00,
2013-04-09 23:20:00,65.1,43.2,29.76,ESE,105,2.0,6.0,45,0.00,,,0.24,0,WeatherCatV1.14B232,2013-04-10 03:20:00,
2013-04-09 23:25:00,64.3,43.6,29.76,ESE,109,2.0,4.0,47,0.00,,,0.24,0,WeatherCatV1.14B232,2013-04-10 03:25:00,
2013-04-09 23:30:00,63.6,44.1,29.76,ESE,104,2.0,2.0,49,0.00,,,0.24,0,WeatherCatV1.14B232,2013-04-10 03:30:00,
2013-04-09 23:35:00,62.9,44.5,29.76,SE,133,4.0,4.0,51,0.00,,,0.24,0,WeatherCatV1.14B232,2013-04-10 03:35:00,
2013-04-09 23:40:00,62.4,45.0,29.75,East,94,2.0,4.0,53,0.00,,,0.24,0,WeatherCatV1.14B232,2013-04-10 03:40:00,
2013-04-09 23:45:00,62.1,45.3,29.75,East,98,4.0,4.0,54,0.00,,,0.24,0,WeatherCatV1.14B232,2013-04-10 03:45:00,
2013-04-09 23:50:00,62.2,45.3,29.75,ESE,110,4.0,4.0,54,0.00,,,0.24,0,WeatherCatV1.14B232,2013-04-10 03:50:00,
2013-04-09 23:55:00,62.3,45.9,29.74,ESE,109,2.0,5.0,55,0.00,,,0.24,0,WeatherCatV1.14B232,2013-04-10 03:55:00,